createdAt,value
2023-04-22T00:04:30.398Z,100.00
2023-04-22T00:09:32.038Z,100.00
2023-04-22T00:14:33.513Z,100.00
2023-04-22T00:19:35.220Z,100.00
2023-04-22T00:24:36.732Z,100.00
2023-04-22T00:29:38.523Z,100.00
2023-04-22T00:34:40.272Z,100.00
2023-04-22T00:39:42.399Z,100.00
2023-04-22T00:44:46.922Z,100.00
2023-04-22T00:49:50.062Z,100.00
2023-04-22T00:54:51.866Z,100.00
2023-04-22T00:59:53.746Z,100.00
2023-04-22T01:04:55.394Z,100.00
2023-04-22T01:09:57.638Z,100.00
2023-04-22T01:14:59.212Z,100.00
2023-04-22T01:20:01.239Z,100.00
2023-04-22T01:25:03.811Z,100.00
2023-04-22T01:30:06.853Z,100.00
2023-04-22T01:35:10.072Z,100.00
2023-04-22T01:40:13.645Z,100.00
2023-04-22T01:45:15.463Z,100.00
2023-04-22T01:50:17.293Z,100.00
2023-04-22T01:55:20.354Z,100.00
2023-04-22T02:00:21.952Z,100.00
2023-04-22T02:05:23.605Z,100.00
2023-04-22T02:10:26.336Z,100.00
2023-04-22T02:15:27.834Z,100.00
2023-04-22T02:20:29.337Z,100.00
2023-04-22T02:25:30.979Z,100.00
2023-04-22T02:30:32.481Z,100.00
2023-04-22T02:35:34.014Z,100.00
2023-04-22T02:40:35.521Z,100.00
2023-04-22T02:45:37.157Z,100.00
2023-04-22T02:50:38.738Z,100.00
2023-04-22T02:55:41.421Z,100.00
2023-04-22T03:00:42.948Z,100.00
2023-04-22T03:05:44.531Z,100.00
2023-04-22T03:10:46.398Z,100.00
2023-04-22T03:15:47.892Z,100.00
2023-04-22T03:20:50.215Z,100.00
2023-04-22T03:25:52.900Z,100.00
2023-04-22T03:30:54.533Z,100.00
2023-04-22T03:35:56.702Z,100.00
2023-04-22T03:40:59.483Z,100.00
2023-04-22T03:46:21.918Z,100.00
2023-04-22T03:51:34.844Z,100.00
2023-04-22T03:56:41.734Z,100.00
2023-04-22T04:01:43.414Z,100.00
2023-04-22T04:06:45.275Z,100.00
2023-04-22T04:11:46.872Z,100.00
2023-04-22T04:16:50.742Z,100.00
2023-04-22T04:22:04.611Z,100.00
2023-04-22T04:27:12.761Z,100.00
2023-04-22T04:32:23.126Z,100.00
2023-04-22T04:37:24.884Z,100.00
2023-04-22T04:42:36.707Z,100.00
2023-04-22T04:47:44.229Z,100.00
2023-04-22T04:52:55.061Z,100.00
2023-04-22T04:58:02.811Z,100.00
2023-04-22T05:03:04.578Z,100.00
2023-04-22T05:08:07.686Z,100.00
2023-04-22T05:13:12.144Z,100.00
2023-04-22T05:18:17.994Z,100.00
2023-04-22T05:23:19.837Z,100.00
2023-04-22T05:28:22.828Z,100.00
2023-04-22T05:33:28.708Z,100.00
2023-04-22T05:38:30.760Z,100.00
2023-04-22T05:43:32.337Z,100.00
2023-04-22T05:48:48.295Z,100.00
2023-04-22T05:54:08.100Z,100.00
2023-04-22T05:59:10.540Z,100.00
2023-04-22T06:04:12.646Z,100.00
2023-04-22T06:09:14.668Z,100.00
2023-04-22T06:14:17.163Z,100.00
2023-04-22T06:19:20.204Z,100.00
2023-04-22T06:24:22.562Z,100.00
2023-04-22T06:29:24.516Z,100.00
2023-04-22T06:34:26.065Z,100.00
2023-04-22T06:39:28.050Z,100.00
2023-04-22T06:44:58.631Z,100.00
2023-04-22T06:50:17.077Z,100.00
2023-04-22T06:55:26.426Z,100.00
2023-04-22T07:00:28.084Z,100.00
2023-04-22T07:05:29.933Z,100.00
2023-04-22T07:10:33.856Z,100.00
2023-04-22T07:15:55.433Z,100.00
2023-04-22T07:20:57.009Z,100.00
2023-04-22T07:25:58.594Z,100.00
2023-04-22T07:31:00.133Z,100.00
2023-04-22T07:36:01.697Z,100.00
2023-04-22T07:41:03.180Z,100.00
2023-04-22T07:46:04.811Z,100.00
2023-04-22T07:51:06.362Z,100.00
2023-04-22T07:56:08.237Z,94.81
2023-04-22T08:01:09.881Z,87.72
2023-04-22T08:06:11.507Z,90.70
2023-04-22T08:11:13.052Z,87.62
2023-04-22T08:16:14.652Z,90.77
2023-04-22T08:21:16.320Z,91.28
2023-04-22T08:26:17.822Z,86.01
2023-04-22T08:31:19.374Z,85.35
2023-04-22T08:36:21.085Z,83.77
2023-04-22T08:41:23.142Z,84.38
2023-04-22T08:46:25.744Z,84.36
2023-04-22T08:51:27.672Z,84.02
2023-04-22T08:56:30.583Z,83.62
2023-04-22T09:01:32.880Z,81.04
2023-04-22T09:06:34.424Z,77.21
2023-04-22T09:11:37.052Z,78.61
2023-04-22T09:16:46.392Z,72.51
2023-04-22T09:21:49.585Z,72.01
2023-04-22T09:26:55.389Z,76.30
2023-04-22T09:31:56.981Z,75.32
2023-04-22T09:36:58.527Z,69.68
2023-04-22T09:42:00.044Z,65.89
2023-04-22T09:47:01.616Z,63.45
2023-04-22T09:52:03.181Z,65.91
2023-04-22T09:57:04.668Z,65.09
2023-04-22T10:02:07.001Z,68.92
2023-04-22T10:07:08.587Z,67.67
2023-04-22T10:12:10.987Z,68.42
2023-04-22T10:17:13.452Z,62.39
2023-04-22T10:22:15.382Z,53.43
2023-04-22T10:27:21.563Z,58.87
2023-04-22T10:32:25.058Z,60.15
2023-04-22T10:37:26.614Z,62.01
2023-04-22T10:42:28.667Z,59.38
2023-04-22T10:47:32.844Z,56.95
2023-04-22T10:52:34.442Z,55.69
2023-04-22T10:57:41.427Z,56.13
2023-04-22T11:02:47.574Z,57.60
2023-04-22T11:07:50.541Z,57.88
2023-04-22T11:12:52.117Z,58.46
2023-04-22T11:17:54.931Z,56.95
2023-04-22T11:22:58.090Z,57.06
2023-04-22T11:27:59.701Z,59.79
2023-04-22T11:33:01.385Z,60.11
2023-04-22T11:38:05.506Z,58.80
2023-04-22T11:43:09.087Z,59.17
2023-04-22T11:48:11.452Z,58.74
2023-04-22T11:53:20.101Z,59.16
2023-04-22T11:58:27.618Z,61.34
2023-04-22T12:03:30.979Z,56.67
2023-04-22T12:08:38.041Z,58.75
2023-04-22T12:18:52.673Z,60.52
2023-04-22T12:24:00.151Z,59.30
2023-04-22T12:29:01.763Z,61.96
2023-04-22T12:34:03.308Z,64.00
2023-04-22T12:39:04.861Z,63.13
2023-04-22T12:44:06.505Z,61.91
2023-04-22T12:49:09.404Z,62.63
2023-04-22T12:54:10.893Z,65.74
2023-04-22T12:59:12.806Z,67.92
2023-04-22T13:04:14.420Z,66.93
2023-04-22T13:09:16.272Z,69.56
2023-04-22T13:14:17.954Z,69.61
2023-04-22T13:19:19.469Z,69.02
2023-04-22T13:24:21.005Z,70.51
2023-04-22T13:29:23.674Z,72.58
2023-04-22T13:34:25.181Z,73.83
2023-04-22T13:39:27.070Z,74.93
2023-04-22T13:44:28.658Z,73.60
2023-04-22T13:49:30.334Z,74.16
2023-04-22T13:54:31.948Z,75.26
2023-04-22T13:59:35.496Z,77.16
2023-04-22T14:04:36.974Z,78.81
2023-04-22T14:09:38.869Z,78.50
2023-04-22T14:14:40.740Z,80.27
2023-04-22T14:19:42.467Z,83.04
2023-04-22T14:24:44.156Z,80.43
2023-04-22T14:29:45.676Z,79.82
2023-04-22T14:34:47.666Z,79.83
2023-04-22T14:39:49.201Z,77.93
2023-04-22T14:44:50.756Z,77.78
2023-04-22T14:49:52.277Z,79.08
2023-04-22T14:54:53.916Z,79.50
2023-04-22T14:59:55.423Z,80.10
2023-04-22T15:04:56.898Z,84.20
2023-04-22T15:09:58.530Z,84.64
2023-04-22T15:15:00.170Z,84.20
2023-04-22T15:20:01.675Z,82.84
2023-04-22T15:25:03.840Z,82.96
2023-04-22T15:30:06.628Z,83.86
2023-04-22T15:35:08.498Z,83.94
2023-04-22T15:40:10.198Z,83.63
2023-04-22T15:45:11.843Z,84.65
2023-04-22T15:50:13.413Z,86.12
2023-04-22T15:55:14.911Z,86.80
2023-04-22T16:00:16.662Z,88.06
2023-04-22T16:05:18.133Z,90.73
2023-04-22T16:10:20.346Z,93.55
2023-04-22T16:15:21.928Z,92.78
2023-04-22T16:20:24.013Z,95.14
2023-04-22T16:25:25.655Z,97.96
2023-04-22T16:30:27.150Z,100.00
2023-04-22T16:35:28.687Z,100.00
2023-04-22T16:40:30.158Z,100.00
2023-04-22T16:45:31.820Z,100.00
2023-04-22T16:50:33.348Z,100.00
2023-04-22T16:55:36.861Z,100.00
2023-04-22T17:00:38.886Z,100.00
2023-04-22T17:05:40.389Z,100.00
2023-04-22T17:10:41.962Z,100.00
2023-04-22T17:15:43.550Z,100.00
2023-04-22T17:20:45.116Z,100.00
2023-04-22T17:25:46.713Z,100.00
2023-04-22T17:30:48.393Z,100.00
2023-04-22T17:35:49.909Z,100.00
2023-04-22T17:40:51.491Z,100.00
2023-04-22T17:45:53.054Z,100.00
2023-04-22T17:50:54.604Z,100.00
2023-04-22T17:55:56.111Z,100.00
2023-04-22T18:00:57.614Z,100.00
2023-04-22T18:05:59.532Z,100.00
2023-04-22T18:11:01.034Z,100.00
2023-04-22T18:16:02.620Z,100.00
2023-04-22T18:21:04.329Z,100.00
2023-04-22T18:26:05.897Z,100.00
2023-04-22T18:31:07.952Z,100.00
2023-04-22T18:36:09.582Z,100.00
2023-04-22T18:41:11.266Z,100.00
2023-04-22T18:46:12.830Z,100.00
2023-04-22T18:51:14.433Z,100.00
2023-04-22T18:56:16.076Z,100.00
2023-04-22T19:01:17.628Z,100.00
2023-04-22T19:06:19.214Z,100.00
2023-04-22T19:11:20.806Z,100.00
2023-04-22T19:16:24.959Z,100.00
2023-04-22T19:21:27.835Z,100.00
2023-04-22T19:26:29.388Z,100.00
2023-04-22T19:31:31.062Z,100.00
2023-04-22T19:36:32.620Z,100.00
2023-04-22T19:41:34.201Z,100.00
2023-04-22T19:46:35.751Z,100.00
2023-04-22T19:51:39.018Z,100.00
2023-04-22T19:56:40.723Z,100.00
2023-04-22T20:01:42.468Z,100.00
2023-04-22T20:06:44.545Z,100.00
2023-04-22T20:11:52.497Z,100.00
2023-04-22T20:16:54.301Z,100.00
2023-04-22T20:21:56.535Z,100.00
2023-04-22T20:26:58.235Z,100.00
2023-04-22T20:31:59.906Z,100.00
2023-04-22T20:37:01.581Z,100.00
2023-04-22T20:42:03.708Z,100.00
2023-04-22T20:47:05.280Z,100.00
2023-04-22T20:52:07.951Z,100.00
2023-04-22T20:57:09.431Z,100.00
2023-04-22T21:02:12.044Z,100.00
2023-04-22T21:07:16.004Z,100.00
2023-04-22T21:12:18.114Z,100.00
2023-04-22T21:17:22.565Z,100.00
2023-04-22T21:22:24.469Z,100.00
2023-04-22T21:27:26.245Z,100.00
2023-04-22T21:32:27.778Z,100.00
2023-04-22T21:37:29.400Z,100.00
2023-04-22T21:42:30.878Z,100.00
2023-04-22T21:47:32.411Z,100.00
2023-04-22T21:52:33.977Z,100.00
2023-04-22T21:57:35.543Z,100.00
2023-04-22T22:02:37.248Z,100.00
2023-04-22T22:07:39.381Z,100.00
2023-04-22T22:12:41.349Z,100.00
2023-04-22T22:17:43.528Z,100.00
2023-04-22T22:22:45.179Z,100.00
2023-04-22T22:27:47.008Z,100.00
2023-04-22T22:32:49.505Z,100.00
2023-04-22T22:37:51.124Z,100.00
2023-04-22T22:42:52.627Z,100.00
2023-04-22T22:47:54.384Z,100.00
2023-04-22T22:52:56.021Z,100.00
2023-04-22T22:57:57.612Z,100.00
2023-04-22T23:02:59.405Z,100.00
2023-04-22T23:08:01.169Z,100.00
2023-04-22T23:13:02.828Z,100.00
2023-04-22T23:18:04.473Z,100.00
2023-04-22T23:23:06.616Z,100.00
2023-04-22T23:28:08.559Z,100.00
2023-04-22T23:33:12.794Z,100.00
2023-04-22T23:38:14.328Z,100.00
2023-04-22T23:43:15.897Z,100.00
2023-04-22T23:48:17.591Z,100.00
2023-04-22T23:53:19.165Z,100.00
2023-04-22T23:58:20.860Z,100.00
